Time;durP1;ratioP1;P1;durP2;ratioP2;P2;SDS_P1;SDS_P2;PMS_P1;PMS_P2;Temp;Humidity;BMP_temperature;BMP_pressure;BME280_temperature;BME280_humidity;BME280_pressure;Samples;Min_cycle;Max_cycle;Signal;HPM_P1;HPM_P2
2021/05/06 00:33:48;;;;;;;;;;;;;;;7.01;62.83;100840.89;1738447;81;20250;-66
2021/05/06 00:36:20;;;;;;;;;;;;;;;7.00;62.99;100837.44;1750699;81;20229;-66
2021/05/06 00:38:56;;;;;;;;;;;;;;;7.00;62.99;100835.33;1754824;81;20231;-67
2021/05/06 00:41:42;;;;;;;;;;;;;;;6.98;62.94;100834.11;1730846;81;20270;-66
2021/05/06 00:55:30;;;;;;;;;;;;;;;6.83;62.76;100820.77;1757661;80;20217;-67
2021/05/06 01:05:54;;;;;;;;;;;;;;;6.67;63.82;100818.79;1720942;82;20175;-68
2021/05/06 01:08:25;;;;;;;;;;;;;;;6.69;64.01;100820.82;1732930;82;20301;-68
2021/05/06 01:13:46;;;;;;;;;;;;;;;6.70;64.22;100812.09;1702125;82;20262;-68
2021/05/06 01:16:18;;;;;;;;;;;;;;;6.67;64.22;100811.83;1723500;81;20231;-68
2021/05/06 01:19:07;;;;;;;;;;;;;;;6.63;64.25;100809.52;1714647;82;20240;-68
2021/05/06 01:21:40;;;;;;;;;;;;;;;6.63;64.17;100814.72;1718637;81;20221;-68
2021/05/06 01:24:12;;;;;;;;;;;;;;;6.63;64.14;100812.12;1740585;81;20641;-68
2021/05/06 01:26:59;;;;;;;;;;;;;;;6.64;64.16;100815.91;1739589;81;20609;-68
2021/05/06 01:32:20;;;;;;;;;;;;;;;6.68;64.19;100821.31;1729260;81;20229;-68
2021/05/06 01:34:47;;;;;;;;;;;;;;;6.70;64.21;100827.70;1733396;81;20256;-68
2021/05/06 01:37:23;;;;;;;;;;;;;;;6.71;64.15;100829.39;1738450;81;20646;-68
2021/05/06 01:40:31;;;;;;;;;;;;;;;6.70;63.87;100823.80;1732605;82;20255;-68
2021/05/06 01:42:47;;;;;;;;;;;;;;;6.69;63.68;100826.02;1710302;82;20288;-67
2021/05/06 01:45:46;;;;;;;;;;;;;;;6.68;63.29;100827.81;1729553;82;20261;-66
2021/05/06 01:48:21;;;;;;;;;;;;;;;6.68;63.04;100825.22;1732080;81;20276;-67
2021/05/06 01:57:33;;;;;;;;;;;;;;;6.67;62.67;100833.09;1722784;81;20229;-68
2021/05/06 01:58:59;;;;;;;;;;;;;;;6.63;62.78;100835.08;1732589;81;20228;-67
2021/05/06 02:01:28;;;;;;;;;;;;;;;6.66;62.80;100837.45;1729226;82;20626;-68
2021/05/06 02:04:00;;;;;;;;;;;;;;;6.68;62.47;100839.53;1729692;82;20224;-68
2021/05/06 02:06:33;;;;;;;;;;;;;;;6.68;62.29;100843.43;1712456;82;20260;-68
2021/05/06 02:09:08;;;;;;;;;;;;;;;6.70;62.28;100842.86;1739474;81;20174;-68
2021/05/06 02:11:41;;;;;;;;;;;;;;;6.73;62.08;100843.94;1757194;81;20177;-67
2021/05/06 02:14:14;;;;;;;;;;;;;;;6.76;61.64;100848.96;1732506;81;20169;-68
2021/05/06 02:16:49;;;;;;;;;;;;;;;6.76;61.15;100850.72;1770593;80;20178;-67
2021/05/06 02:19:29;;;;;;;;;;;;;;;6.71;60.91;100852.81;1740674;81;20161;-68
2021/05/06 02:21:57;;;;;;;;;;;;;;;6.68;60.77;100853.84;1748148;81;20157;-68
2021/05/06 02:24:29;;;;;;;;;;;;;;;6.66;60.87;100856.16;1738520;81;20286;-68
2021/05/06 02:27:02;;;;;;;;;;;;;;;6.62;60.87;100857.27;1724224;83;20235;-67
2021/05/06 02:29:34;;;;;;;;;;;;;;;6.58;60.94;100851.44;1715218;82;20167;-68
2021/05/06 02:32:06;;;;;;;;;;;;;;;6.58;60.97;100854.50;1730606;83;20633;-68
2021/05/06 02:34:40;;;;;;;;;;;;;;;6.58;61.04;100857.09;1738070;81;20636;-67
2021/05/06 02:37:12;;;;;;;;;;;;;;;6.58;60.99;100855.34;1725786;82;20585;-67
2021/05/06 02:39:46;;;;;;;;;;;;;;;6.62;60.97;100862.47;1728814;83;20247;-68
2021/05/06 02:42:18;;;;;;;;;;;;;;;6.68;60.92;100862.94;1733652;82;20668;-68
2021/05/06 02:44:50;;;;;;;;;;;;;;;6.79;60.82;100859.19;1736048;81;20259;-67
2021/05/06 02:47:22;;;;;;;;;;;;;;;6.92;60.65;100864.91;1729057;83;20322;-68
2021/05/06 02:49:56;;;;;;;;;;;;;;;7.05;60.31;100863.17;1713957;82;20239;-68
2021/05/06 02:52:38;;;;;;;;;;;;;;;7.17;59.88;100866.29;1731387;82;20632;-69
2021/05/06 02:58:05;;;;;;;;;;;;;;;7.48;59.09;100872.00;1716674;83;20208;-68
2021/05/06 03:03:19;;;;;;;;;;;;;;;7.87;58.25;100872.88;1713273;83;20286;-66
2021/05/06 03:05:54;;;;;;;;;;;;;;;8.10;57.32;100874.28;1719034;83;20168;-66
2021/05/06 03:08:32;;;;;;;;;;;;;;;8.33;56.40;100863.61;1727900;82;20227;-67
2021/05/06 03:11:50;;;;;;;;;;;;;;;8.59;55.61;100865.69;1729150;82;20616;-62
2021/05/06 03:24:32;;;;;;;;;;;;;;;9.67;51.57;100867.26;1739702;81;20216;-72
2021/05/06 03:27:03;;;;;;;;;;;;;;;9.79;51.20;100866.30;1743374;81;20284;-72
2021/05/06 03:29:40;;;;;;;;;;;;;;;9.88;51.08;100863.48;1744134;81;20185;-71
2021/05/06 03:32:21;;;;;;;;;;;;;;;9.97;50.82;100862.30;1742257;81;20165;-70
2021/05/06 03:34:51;;;;;;;;;;;;;;;10.04;50.64;100866.58;1733163;81;20573;-72
2021/05/06 03:43:18;;;;;;;;;;;;;;;10.68;49.94;100867.18;1718489;83;20236;-72
2021/05/06 04:29:19;;;;;;;;;;;;;;;20.92;31.56;100872.42;1755986;80;20227;-72
2021/05/06 04:36:48;;;;;;;;;;;;;;;21.66;30.34;100858.60;1728076;82;20289;-69
2021/05/06 04:39:11;;;;;;;;;;;;;;;21.81;30.32;100852.67;1783104;79;20240;-70
2021/05/06 04:58:38;;;;;;;;;;;;;;;25.17;24.65;100834.74;1686528;81;20498;-73
2021/05/06 05:03:54;;;;;;;;;;;;;;;25.68;23.25;100829.20;1773213;79;20207;-72
2021/05/06 05:06:23;;;;;;;;;;;;;;;25.96;23.31;100826.86;1774795;79;20289;-70
2021/05/06 05:11:54;;;;;;;;;;;;;;;26.87;21.83;100817.97;1767767;79;20269;-66
2021/05/06 05:14:39;;;;;;;;;;;;;;;27.10;21.54;100818.84;1759495;79;20263;-68
2021/05/06 05:20:14;;;;;;;;;;;;;;;27.89;19.22;100810.80;1775718;79;20264;-68
2021/05/06 05:25:45;;;;;;;;;;;;;;;28.52;18.54;100805.39;1766858;79;20302;-73
2021/05/06 05:28:09;;;;;;;;;;;;;;;29.00;18.12;100799.04;1758548;79;20296;-68
2021/05/06 05:30:41;;;;;;;;;;;;;;;29.34;17.29;100797.20;1768387;79;20290;-71
2021/05/06 05:33:17;;;;;;;;;;;;;;;29.60;17.29;100787.61;1776915;79;20244;-67
2021/05/06 05:44:01;;;;;;;;;;;;;;;30.31;16.51;100771.30;1779033;79;20280;-71
2021/05/06 05:54:52;;;;;;;;;;;;;;;30.74;15.24;100781.80;1760981;79;20246;-70
2021/05/06 05:57:24;;;;;;;;;;;;;;;30.18;15.66;100762.25;1760929;79;20256;-70
2021/05/06 05:59:57;;;;;;;;;;;;;;;29.77;15.84;100764.97;1773215;79;20294;-67
2021/05/06 06:02:30;;;;;;;;;;;;;;;29.47;16.01;100744.81;1771541;79;20225;-69
2021/05/06 06:05:02;;;;;;;;;;;;;;;29.46;16.63;100750.73;1753966;79;20298;-66
2021/05/06 06:07:37;;;;;;;;;;;;;;;29.91;16.14;100740.59;1770675;79;20334;-67
2021/05/06 06:10:09;;;;;;;;;;;;;;;30.30;15.54;100748.60;1760142;79;20725;-65
2021/05/06 06:12:42;;;;;;;;;;;;;;;30.28;15.48;100742.11;1751887;80;20297;-71
2021/05/06 06:15:32;;;;;;;;;;;;;;;30.33;15.30;100750.80;1747899;79;20255;-67
2021/05/06 06:18:01;;;;;;;;;;;;;;;30.34;15.59;100758.67;1771775;79;20216;-70
2021/05/06 06:20:35;;;;;;;;;;;;;;;30.20;15.93;100742.55;1767861;79;20280;-70
2021/05/06 06:23:06;;;;;;;;;;;;;;;30.42;16.25;100741.20;1774905;79;20969;-72
2021/05/06 06:25:39;;;;;;;;;;;;;;;30.83;15.21;100737.83;1770536;79;20301;-70
2021/05/06 06:28:13;;;;;;;;;;;;;;;30.59;15.63;100733.25;1771517;79;20740;-70
2021/05/06 06:30:47;;;;;;;;;;;;;;;30.23;15.91;100723.15;1758868;79;20262;-67
2021/05/06 06:33:19;;;;;;;;;;;;;;;30.09;16.35;100715.16;1764645;79;20319;-72
2021/05/06 06:35:52;;;;;;;;;;;;;;;30.38;16.14;100711.72;1773432;79;21038;-70
2021/05/06 06:38:23;;;;;;;;;;;;;;;30.82;15.50;100715.91;1771896;79;20280;-70
2021/05/06 06:40:56;;;;;;;;;;;;;;;30.92;15.10;100717.38;1769449;79;20312;-71
2021/05/06 06:43:29;;;;;;;;;;;;;;;30.75;14.79;100723.41;1761112;79;20278;-70
2021/05/06 06:46:04;;;;;;;;;;;;;;;30.36;14.97;100707.08;1775910;79;20893;-69
2021/05/06 06:48:39;;;;;;;;;;;;;;;29.96;15.12;100708.78;1763296;79;20281;-69
2021/05/06 06:51:11;;;;;;;;;;;;;;;29.87;15.83;100702.20;1751533;80;20316;-70
2021/05/06 06:53:43;;;;;;;;;;;;;;;29.91;15.35;100710.89;1777299;79;20735;-66
2021/05/06 06:56:15;;;;;;;;;;;;;;;29.31;14.93;100735.66;1754317;80;20299;-66
2021/05/06 06:58:51;;;;;;;;;;;;;;;28.61;15.63;100694.89;1774444;79;20197;-69
2021/05/06 07:01:22;;;;;;;;;;;;;;;28.55;16.23;100696.64;1757024;79;20420;-71
2021/05/06 07:03:54;;;;;;;;;;;;;;;28.89;16.10;100694.00;1771783;79;20283;-73
2021/05/06 07:06:26;;;;;;;;;;;;;;;29.32;15.84;100710.34;1769137;79;20324;-69
2021/05/06 07:08:59;;;;;;;;;;;;;;;29.50;16.02;100699.78;1750706;79;20306;-70
2021/05/06 07:11:34;;;;;;;;;;;;;;;29.76;16.00;100683.70;1760549;79;20472;-69
2021/05/06 07:14:06;;;;;;;;;;;;;;;30.31;15.22;100707.81;1775634;79;20219;-71
2021/05/06 07:16:39;;;;;;;;;;;;;;;30.52;14.89;100687.27;1778675;79;20268;-71
2021/05/06 07:19:11;;;;;;;;;;;;;;;30.89;14.82;100668.40;1771310;79;20255;-70
2021/05/06 07:21:46;;;;;;;;;;;;;;;31.11;14.76;100690.73;1779527;79;20276;-71
2021/05/06 07:24:18;;;;;;;;;;;;;;;31.10;14.38;100695.86;1770440;79;20276;-70
2021/05/06 07:26:53;;;;;;;;;;;;;;;31.07;14.73;100686.94;1768350;79;20260;-70
2021/05/06 07:29:26;;;;;;;;;;;;;;;31.03;15.00;100677.16;1769277;79;20255;-70
2021/05/06 07:32:00;;;;;;;;;;;;;;;31.03;14.87;100666.88;1777096;79;20213;-70
2021/05/06 07:34:35;;;;;;;;;;;;;;;31.03;15.25;100671.75;1766081;79;20683;-73
2021/05/06 07:37:09;;;;;;;;;;;;;;;31.15;14.97;100675.08;1767545;79;20251;-70
2021/05/06 07:39:45;;;;;;;;;;;;;;;31.48;14.96;100682.61;1770251;79;20737;-73
2021/05/06 07:42:19;;;;;;;;;;;;;;;31.41;14.38;100706.36;1770233;79;20249;-64
2021/05/06 07:44:55;;;;;;;;;;;;;;;30.77;14.34;100692.06;1780980;79;20276;-70
2021/05/06 07:47:31;;;;;;;;;;;;;;;30.30;14.93;100677.02;1763166;79;20241;-66
2021/05/06 07:50:07;;;;;;;;;;;;;;;30.21;15.50;100686.13;1771068;79;20284;-69
2021/05/06 07:52:50;;;;;;;;;;;;;;;30.34;15.06;100697.89;1774495;79;20236;-68
2021/05/06 07:55:23;;;;;;;;;;;;;;;30.17;15.01;100679.59;1773872;79;20286;-67
2021/05/06 07:57:56;;;;;;;;;;;;;;;30.01;15.16;100689.95;1757415;79;20718;-69
2021/05/06 08:00:29;;;;;;;;;;;;;;;29.68;15.66;100684.13;1775875;79;20591;-68
2021/05/06 08:03:02;;;;;;;;;;;;;;;29.40;16.18;100690.22;1778455;79;21269;-69
2021/05/06 08:05:35;;;;;;;;;;;;;;;29.25;15.96;100685.42;1769893;79;20219;-68
2021/05/06 08:08:07;;;;;;;;;;;;;;;29.19;15.18;100681.83;1779850;79;21252;-72
2021/05/06 08:10:39;;;;;;;;;;;;;;;29.00;15.37;100696.61;1773756;79;20379;-64
2021/05/06 08:13:13;;;;;;;;;;;;;;;28.91;15.81;100667.61;1771721;79;20322;-62
2021/05/06 08:15:47;;;;;;;;;;;;;;;28.94;15.90;100673.87;1756092;79;20618;-62
2021/05/06 08:18:19;;;;;;;;;;;;;;;28.93;15.70;100669.53;1770092;79;20181;-62
2021/05/06 08:20:51;;;;;;;;;;;;;;;28.99;15.06;100663.98;1780021;79;20286;-68
2021/05/06 08:23:24;;;;;;;;;;;;;;;28.89;15.02;100667.05;1768681;79;20281;-63
2021/05/06 08:25:57;;;;;;;;;;;;;;;28.82;15.27;100675.83;1778435;79;20230;-66
2021/05/06 08:28:31;;;;;;;;;;;;;;;28.65;14.85;100656.44;1752734;79;20261;-62
2021/05/06 08:31:03;;;;;;;;;;;;;;;28.43;15.19;100670.30;1773353;79;20366;-60
2021/05/06 08:33:35;;;;;;;;;;;;;;;28.19;14.76;100667.44;1776244;79;20238;-61
2021/05/06 08:36:07;;;;;;;;;;;;;;;27.74;15.24;100660.62;1769254;79;20298;-66
2021/05/06 08:38:40;;;;;;;;;;;;;;;27.38;15.12;100704.77;1765981;79;20262;-65
2021/05/06 08:41:13;;;;;;;;;;;;;;;27.01;15.81;100662.20;1761239;79;20204;-69
2021/05/06 08:43:53;;;;;;;;;;;;;;;26.79;16.17;100647.18;1744877;80;20273;-64
2021/05/06 08:46:20;;;;;;;;;;;;;;;26.90;16.25;100658.45;1775306;79;20281;-63
2021/05/06 08:48:54;;;;;;;;;;;;;;;26.89;16.65;100663.55;1772238;79;20279;-66
2021/05/06 08:51:26;;;;;;;;;;;;;;;26.94;16.58;100683.79;1778238;79;20333;-63
2021/05/06 08:53:58;;;;;;;;;;;;;;;26.90;16.45;100671.05;1771671;78;20221;-66
2021/05/06 08:56:32;;;;;;;;;;;;;;;26.85;16.70;100663.70;1767562;79;20285;-64
2021/05/06 08:59:05;;;;;;;;;;;;;;;26.86;15.94;100658.63;1772714;79;20284;-63
2021/05/06 09:01:38;;;;;;;;;;;;;;;26.71;16.30;100648.30;1759928;79;20215;-62
2021/05/06 09:04:10;;;;;;;;;;;;;;;26.53;16.28;100663.69;1771815;79;20356;-62
2021/05/06 09:06:58;;;;;;;;;;;;;;;26.23;16.73;100649.45;1783785;79;20277;-62
2021/05/06 09:09:31;;;;;;;;;;;;;;;25.93;17.51;100631.48;1766965;79;20691;-62
2021/05/06 09:12:06;;;;;;;;;;;;;;;25.95;17.53;100627.23;1772145;79;20211;-63
2021/05/06 09:14:41;;;;;;;;;;;;;;;26.03;17.88;100620.21;1753496;80;20262;-64
2021/05/06 09:17:27;;;;;;;;;;;;;;;26.01;17.95;100619.08;1751531;81;20282;-62
2021/05/06 09:20:15;;;;;;;;;;;;;;;25.85;18.64;100610.33;1695767;81;20279;-60
2021/05/06 09:22:50;;;;;;;;;;;;;;;25.78;18.88;100614.14;1755894;79;20167;-60
2021/05/06 09:25:36;;;;;;;;;;;;;;;25.79;18.79;100611.77;1759914;79;20301;-59
2021/05/06 09:28:24;;;;;;;;;;;;;;;25.76;18.81;100601.48;1759563;79;20170;-61
2021/05/06 09:31:00;;;;;;;;;;;;;;;25.63;18.83;100597.62;1779329;79;20308;-58
2021/05/06 09:33:40;;;;;;;;;;;;;;;25.64;18.58;100604.62;1787723;79;20218;-64
2021/05/06 09:36:24;;;;;;;;;;;;;;;25.51;17.87;100604.27;1774927;79;20570;-61
2021/05/06 09:38:57;;;;;;;;;;;;;;;25.10;17.96;100613.48;1775746;78;20277;-57
2021/05/06 09:41:32;;;;;;;;;;;;;;;24.48;18.76;100604.51;1767253;79;20192;-64
2021/05/06 09:44:16;;;;;;;;;;;;;;;23.98;19.93;100600.09;1778439;79;20624;-65
2021/05/06 09:46:56;;;;;;;;;;;;;;;23.58;21.04;100591.45;1773157;79;20294;-65
2021/05/06 09:49:32;;;;;;;;;;;;;;;23.24;21.37;100615.28;1769788;79;20611;-61
2021/05/06 09:52:05;;;;;;;;;;;;;;;23.00;21.15;100597.25;1759927;80;20692;-64
2021/05/06 09:54:48;;;;;;;;;;;;;;;22.85;21.94;100592.67;1767931;79;20231;-66
2021/05/06 09:57:34;;;;;;;;;;;;;;;22.79;21.62;100591.64;1767861;79;20283;-60
2021/05/06 10:00:17;;;;;;;;;;;;;;;22.79;21.79;100577.47;1763157;79;20276;-63
2021/05/06 10:02:49;;;;;;;;;;;;;;;22.86;22.57;100595.63;1750688;79;20623;-64
2021/05/06 10:05:23;;;;;;;;;;;;;;;22.84;21.71;100600.86;1765743;79;20309;-60
2021/05/06 10:07:56;;;;;;;;;;;;;;;22.64;21.61;100587.02;1761955;79;20267;-67
2021/05/06 10:10:30;;;;;;;;;;;;;;;22.44;21.61;100593.36;1767460;79;20304;-67
2021/05/06 10:13:03;;;;;;;;;;;;;;;22.25;22.23;100584.83;1779155;79;20644;-63
2021/05/06 10:15:37;;;;;;;;;;;;;;;22.12;23.01;100604.30;1778312;79;20154;-67
2021/05/06 10:18:10;;;;;;;;;;;;;;;22.05;22.82;100575.47;1773964;78;20297;-69
2021/05/06 10:20:43;;;;;;;;;;;;;;;22.02;23.27;100574.02;1779597;79;20671;-66
2021/05/06 10:23:16;;;;;;;;;;;;;;;22.08;23.25;100562.56;1764840;79;20312;-70
2021/05/06 10:25:51;;;;;;;;;;;;;;;22.15;22.83;100587.89;1767116;79;20315;-63
2021/05/06 10:28:29;;;;;;;;;;;;;;;22.08;23.39;100577.73;1736799;80;20235;-63
2021/05/06 10:31:03;;;;;;;;;;;;;;;22.00;23.12;100552.59;1735546;81;20318;-61
2021/05/06 10:33:43;;;;;;;;;;;;;;;21.97;23.69;100567.67;1696574;83;20295;-62
2021/05/06 10:36:22;;;;;;;;;;;;;;;21.96;24.00;100560.69;1728818;81;20207;-64
2021/05/06 10:38:55;;;;;;;;;;;;;;;21.98;23.90;100550.64;1735896;81;20282;-73
2021/05/06 10:41:38;;;;;;;;;;;;;;;22.04;24.37;100547.98;1742046;80;20274;-68
2021/05/06 10:44:14;;;;;;;;;;;;;;;22.19;24.18;100541.66;1736596;80;20807;-69
2021/05/06 10:47:04;;;;;;;;;;;;;;;22.37;23.67;100554.69;1735445;80;20207;-66
2021/05/06 10:49:44;;;;;;;;;;;;;;;22.45;23.66;100563.00;1711570;82;20182;-69
2021/05/06 10:52:19;;;;;;;;;;;;;;;22.38;24.06;100540.31;1712536;82;20298;-70
2021/05/06 10:54:55;;;;;;;;;;;;;;;22.39;24.07;100531.80;1713845;82;20316;-72
2021/05/06 10:57:34;;;;;;;;;;;;;;;22.43;23.99;100523.68;1712656;82;20285;-68
2021/05/06 11:00:18;;;;;;;;;;;;;;;22.50;23.62;100528.50;1716711;82;20263;-65
2021/05/06 11:02:59;;;;;;;;;;;;;;;22.56;23.47;100527.69;1709381;82;20290;-67
2021/05/06 11:05:27;;;;;;;;;;;;;;;22.53;23.17;100512.08;1711461;82;20298;-67
2021/05/06 11:08:10;;;;;;;;;;;;;;;22.41;23.98;100514.56;1712233;82;20274;-64
2021/05/06 11:10:49;;;;;;;;;;;;;;;22.32;23.54;100516.31;1705479;82;20276;-66
2021/05/06 11:13:22;;;;;;;;;;;;;;;22.22;23.91;100510.56;1705846;82;20229;-62
2021/05/06 11:16:14;;;;;;;;;;;;;;;22.20;23.91;100502.77;1717192;82;20277;-64
2021/05/06 11:18:51;;;;;;;;;;;;;;;22.28;23.74;100504.42;1702215;82;20821;-75
2021/05/06 11:21:34;;;;;;;;;;;;;;;22.39;24.01;100512.62;1698744;82;20313;-70
2021/05/06 11:24:14;;;;;;;;;;;;;;;22.50;23.84;100498.64;1701111;82;20268;-68
2021/05/06 11:27:20;;;;;;;;;;;;;;;22.54;23.74;100506.56;1743712;81;20231;-65
2021/05/06 11:29:47;;;;;;;;;;;;;;;22.54;23.92;100491.88;1737115;81;20243;-67
2021/05/06 11:32:36;;;;;;;;;;;;;;;22.54;24.18;100486.55;1723133;81;20307;-63
2021/05/06 11:35:08;;;;;;;;;;;;;;;22.58;23.72;100485.59;1725130;80;20707;-69
2021/05/06 11:37:45;;;;;;;;;;;;;;;22.55;23.64;100488.17;1741458;80;20571;-65
2021/05/06 11:40:26;;;;;;;;;;;;;;;22.48;23.95;100477.20;1740997;81;20454;-71
2021/05/06 11:42:52;;;;;;;;;;;;;;;22.45;23.31;100478.97;1748602;81;20230;-66
2021/05/06 11:45:34;;;;;;;;;;;;;;;22.41;22.97;100469.21;1729669;81;20684;-74
2021/05/06 11:48:06;;;;;;;;;;;;;;;22.40;23.02;100460.89;1711824;82;20445;-69
2021/05/06 11:50:45;;;;;;;;;;;;;;;22.38;22.34;100467.48;1707442;82;20297;-63
2021/05/06 11:53:17;;;;;;;;;;;;;;;22.28;23.24;100464.41;1703830;82;20250;-60
2021/05/06 11:55:49;;;;;;;;;;;;;;;22.24;23.58;100454.66;1716187;82;20220;-62
2021/05/06 11:58:25;;;;;;;;;;;;;;;22.27;22.88;100462.25;1715001;82;20808;-64
2021/05/06 12:00:57;;;;;;;;;;;;;;;22.21;23.57;100455.60;1718688;82;20252;-62
2021/05/06 12:03:37;;;;;;;;;;;;;;;22.15;23.51;100450.56;1706831;82;20322;-62
2021/05/06 12:06:10;;;;;;;;;;;;;;;22.06;23.87;100449.97;1709193;82;20303;-66
2021/05/06 12:08:45;;;;;;;;;;;;;;;22.02;24.25;100442.05;1716194;82;21229;-68
2021/05/06 12:11:17;;;;;;;;;;;;;;;22.02;23.97;100435.39;1708519;82;20277;-63
2021/05/06 12:13:50;;;;;;;;;;;;;;;22.01;24.37;100436.43;1713599;82;20286;-69
2021/05/06 12:16:23;;;;;;;;;;;;;;;22.02;25.17;100435.39;1706824;82;20267;-66
2021/05/06 12:19:11;;;;;;;;;;;;;;;22.06;25.22;100427.31;1720985;82;20297;-64
2021/05/06 12:21:48;;;;;;;;;;;;;;;22.06;25.06;100433.97;1718887;82;20294;-68
2021/05/06 12:24:41;;;;;;;;;;;;;;;22.04;25.19;100425.88;1704763;82;20329;-66
2021/05/06 12:27:22;;;;;;;;;;;;;;;22.01;25.00;100427.10;1713709;82;20611;-67
2021/05/06 12:30:01;;;;;;;;;;;;;;;22.00;25.04;100423.29;1712582;82;20674;-70
2021/05/06 12:32:34;;;;;;;;;;;;;;;21.96;25.31;100417.56;1715072;82;20243;-65
2021/05/06 12:35:07;;;;;;;;;;;;;;;21.96;25.46;100421.56;1765352;79;20286;-66
2021/05/06 12:37:41;;;;;;;;;;;;;;;21.98;25.40;100416.02;1770158;79;20274;-70
2021/05/06 12:40:13;;;;;;;;;;;;;;;22.00;25.86;100420.63;1769829;79;20720;-62
2021/05/06 12:42:45;;;;;;;;;;;;;;;21.96;25.70;100406.08;1780896;79;20252;-66
2021/05/06 12:45:20;;;;;;;;;;;;;;;21.91;25.91;100408.53;1766904;79;20689;-67
2021/05/06 12:47:53;;;;;;;;;;;;;;;21.90;25.93;100407.70;1766443;79;20317;-65
2021/05/06 12:50:29;;;;;;;;;;;;;;;21.92;26.13;100411.02;1745750;79;20258;-68
2021/05/06 12:53:08;;;;;;;;;;;;;;;21.95;25.67;100390.58;1777668;79;20248;-63
2021/05/06 12:55:42;;;;;;;;;;;;;;;21.95;26.24;100412.42;1781291;79;20212;-64
2021/05/06 12:58:17;;;;;;;;;;;;;;;21.96;26.31;100394.08;1767194;79;20291;-68
2021/05/06 13:00:58;;;;;;;;;;;;;;;21.92;26.45;100396.35;1788277;79;20730;-62
2021/05/06 13:03:45;;;;;;;;;;;;;;;21.96;26.08;100396.23;1772488;79;20227;-63
2021/05/06 13:06:16;;;;;;;;;;;;;;;21.96;25.80;100392.23;1776264;79;20229;-65
2021/05/06 13:08:48;;;;;;;;;;;;;;;21.97;26.16;100394.40;1762274;79;20156;-65
2021/05/06 13:11:21;;;;;;;;;;;;;;;22.00;26.03;100388.12;1787319;79;21837;-65
2021/05/06 13:13:55;;;;;;;;;;;;;;;22.04;25.55;100385.34;1777325;79;20905;-68
2021/05/06 13:16:43;;;;;;;;;;;;;;;22.04;25.60;100391.21;1767236;79;20285;-70
2021/05/06 13:19:17;;;;;;;;;;;;;;;22.00;25.89;100382.79;1783891;79;20296;-63
2021/05/06 13:21:54;;;;;;;;;;;;;;;21.98;25.60;100379.52;1782414;79;20292;-66
2021/05/06 13:24:45;;;;;;;;;;;;;;;21.98;25.86;100349.37;1780601;79;20224;-67
2021/05/06 13:27:21;;;;;;;;;;;;;;;21.99;25.64;100352.35;1773313;79;20664;-65
2021/05/06 13:30:02;;;;;;;;;;;;;;;21.96;25.46;100377.58;1776386;79;20285;-65
2021/05/06 13:32:36;;;;;;;;;;;;;;;21.93;25.93;100366.49;1767829;79;20230;-64
2021/05/06 13:35:12;;;;;;;;;;;;;;;21.92;25.88;100366.20;1763045;79;20388;-64
2021/05/06 13:37:46;;;;;;;;;;;;;;;21.92;25.65;100376.36;1777430;79;20228;-68
2021/05/06 13:40:18;;;;;;;;;;;;;;;21.90;25.76;100378.38;1784454;79;20276;-66
2021/05/06 13:42:52;;;;;;;;;;;;;;;21.83;25.93;100374.88;1771946;79;20861;-64
2021/05/06 13:45:24;;;;;;;;;;;;;;;21.76;25.83;100370.56;1761854;79;20220;-66
2021/05/06 13:47:56;;;;;;;;;;;;;;;21.68;25.83;100384.94;1694305;82;20307;-68
2021/05/06 13:50:29;;;;;;;;;;;;;;;21.62;26.16;100378.25;1723450;81;20316;-67
2021/05/06 13:53:03;;;;;;;;;;;;;;;21.55;25.90;100376.09;1727255;81;20861;-67
2021/05/06 13:55:36;;;;;;;;;;;;;;;21.50;25.96;100366.06;1750958;81;20618;-63
2021/05/06 13:58:08;;;;;;;;;;;;;;;21.48;26.26;100363.61;1724952;81;21109;-65
2021/05/06 14:00:41;;;;;;;;;;;;;;;21.48;25.93;100361.45;1725892;81;20235;-64
2021/05/06 14:03:13;;;;;;;;;;;;;;;21.44;26.04;100363.72;1784317;79;20287;-66
2021/05/06 14:05:45;;;;;;;;;;;;;;;21.42;25.89;100364.41;1768263;79;20304;-66
2021/05/06 14:08:19;;;;;;;;;;;;;;;21.42;25.43;100360.95;1782367;79;20686;-68
2021/05/06 14:10:51;;;;;;;;;;;;;;;21.37;25.55;100350.88;1791792;79;20925;-69
2021/05/06 14:13:24;;;;;;;;;;;;;;;21.37;25.63;100359.41;1771960;79;20273;-67
2021/05/06 14:15:56;;;;;;;;;;;;;;;21.39;25.71;100360.02;1778504;79;20200;-66
2021/05/06 14:18:28;;;;;;;;;;;;;;;21.42;25.29;100369.73;1791114;79;20241;-68
2021/05/06 14:21:02;;;;;;;;;;;;;;;21.39;24.96;100356.02;1754595;80;20224;-67
2021/05/06 14:23:44;;;;;;;;;;;;;;;21.34;24.88;100349.98;1750221;79;20334;-65
2021/05/06 14:26:21;;;;;;;;;;;;;;;21.27;25.28;100357.14;1750836;80;20277;-65
2021/05/06 14:28:47;;;;;;;;;;;;;;;21.20;24.96;100366.13;1764942;80;20243;-66
2021/05/06 14:31:19;;;;;;;;;;;;;;;21.09;25.29;100361.41;1768510;80;20290;-68
2021/05/06 14:33:51;;;;;;;;;;;;;;;21.00;25.45;100359.89;1761900;81;20209;-66
2021/05/06 14:36:23;;;;;;;;;;;;;;;20.92;25.83;100354.23;1732671;81;20327;-69
2021/05/06 14:38:57;;;;;;;;;;;;;;;20.85;26.35;100355.27;1717832;81;20776;-68
2021/05/06 14:41:29;;;;;;;;;;;;;;;20.82;26.45;100356.48;1756466;81;20626;-67
2021/05/06 14:44:01;;;;;;;;;;;;;;;20.81;26.87;100352.99;1732029;81;20905;-68
2021/05/06 14:46:33;;;;;;;;;;;;;;;20.83;26.48;100351.45;1778353;80;20302;-66
2021/05/06 14:49:06;;;;;;;;;;;;;;;20.85;26.00;100352.06;1763564;80;20274;-65
2021/05/06 14:51:38;;;;;;;;;;;;;;;20.87;26.01;100346.56;1748504;81;20298;-65
2021/05/06 14:54:11;;;;;;;;;;;;;;;20.89;26.46;100344.02;1749207;80;20280;-67
2021/05/06 14:56:42;;;;;;;;;;;;;;;20.93;26.84;100341.76;1776267;79;20292;-67
2021/05/06 14:59:14;;;;;;;;;;;;;;;20.95;26.34;100337.88;1803083;79;20624;-67
2021/05/06 15:01:47;;;;;;;;;;;;;;;20.94;26.29;100339.42;1804789;79;20169;-69
2021/05/06 15:04:19;;;;;;;;;;;;;;;20.90;25.99;100331.54;1768124;80;20306;-67
2021/05/06 15:06:52;;;;;;;;;;;;;;;20.85;26.07;100349.94;1750375;80;20298;-67
2021/05/06 15:09:25;;;;;;;;;;;;;;;20.79;25.97;100332.92;1768147;80;20180;-67
2021/05/06 15:11:59;;;;;;;;;;;;;;;20.74;26.03;100330.87;1773265;80;20263;-66
2021/05/06 15:14:31;;;;;;;;;;;;;;;20.68;26.28;100336.97;1791407;79;20395;-68
2021/05/06 15:17:03;;;;;;;;;;;;;;;20.61;26.80;100336.13;1797459;79;20193;-67
2021/05/06 15:19:35;;;;;;;;;;;;;;;20.56;26.94;100333.23;1793602;79;20296;-69
2021/05/06 15:22:07;;;;;;;;;;;;;;;20.49;27.12;100328.41;1792135;79;20285;-68
2021/05/06 15:24:41;;;;;;;;;;;;;;;20.43;27.46;100332.37;1770897;79;20235;-68
2021/05/06 15:27:13;;;;;;;;;;;;;;;20.35;27.73;100330.69;1744839;81;20236;-67
2021/05/06 15:29:46;;;;;;;;;;;;;;;20.29;27.67;100335.48;1739719;80;20254;-66
2021/05/06 15:32:18;;;;;;;;;;;;;;;20.23;27.40;100329.60;1763743;80;20260;-67
2021/05/06 15:34:52;;;;;;;;;;;;;;;20.16;27.15;100336.69;1789605;79;20253;-67
2021/05/06 15:37:24;;;;;;;;;;;;;;;20.10;27.10;100345.46;1780384;79;20311;-66
2021/05/06 15:39:56;;;;;;;;;;;;;;;20.03;26.91;100333.47;1793389;79;20197;-67
2021/05/06 15:42:28;;;;;;;;;;;;;;;19.98;27.17;100336.39;1798330;79;20574;-67
2021/05/06 15:45:00;;;;;;;;;;;;;;;19.91;27.36;100325.72;1777884;79;20152;-68
2021/05/06 15:47:32;;;;;;;;;;;;;;;19.84;27.52;100328.02;1768449;80;20182;-66
2021/05/06 15:50:07;;;;;;;;;;;;;;;19.76;27.58;100332.14;1760370;79;20267;-66
2021/05/06 15:52:39;;;;;;;;;;;;;;;19.67;27.74;100336.78;1763405;80;20282;-66
2021/05/06 15:55:13;;;;;;;;;;;;;;;19.63;27.96;100333.38;1771441;80;20235;-66
2021/05/06 15:57:48;;;;;;;;;;;;;;;19.58;28.12;100333.13;1769558;80;20620;-64
2021/05/06 16:00:23;;;;;;;;;;;;;;;19.51;28.26;100339.73;1770506;79;20558;-66
2021/05/06 16:02:59;;;;;;;;;;;;;;;19.46;28.45;100332.84;1748583;81;20224;-66
2021/05/06 16:05:29;;;;;;;;;;;;;;;19.39;28.70;100332.75;1793121;79;20229;-65
2021/05/06 16:08:01;;;;;;;;;;;;;;;19.32;28.90;100333.17;1735815;81;20299;-66
2021/05/06 16:10:33;;;;;;;;;;;;;;;19.27;29.11;100332.92;1788585;79;20268;-65
2021/05/06 16:13:06;;;;;;;;;;;;;;;19.20;29.39;100336.55;1789191;79;20229;-65
2021/05/06 16:15:39;;;;;;;;;;;;;;;19.14;29.72;100335.95;1749981;80;20180;-66